Axton, Virginia
Current Conditions -  °F | °C
As of 9:15 AM on Monday 22 Dec 2014 (Local Time) from KMTV Reporting Station
Drizzle Drizzle  
Wind Chill: 31°   Ceiling: 800
Heat Index: 35°   Visibility: 2.5mi
Dew Point: 35°   Wind: 5mph
Humidity: 100%   Direction: 360°N
Pressure: 30.22"   Gusts: NA
Location:  36.66°N, 79.71°W
Report Text: KMTV 221415Z AUTO 36004KT 2 1/2SM DZ BKN008 OVC012 02/02 A3022 RMK AO2 T00180018
Loading
Personal Weather Stations






























Interactive Weather Map New forecast layout! Learn more

10-Day Weather Forecast

Advertisements
Track Severe Weather on mobile